D/T METAR WX W/SPE G/SPE TEMP DEWP FEEL
25/05/22 00:20 EGLF 242320Z AUTO 24007KT 9999 NCD 09/05 Q1012 8.1mph 9°C 5°C 8.3°C
24/05/22 23:50 EGLF 242250Z AUTO 24006KT 9999 NCD 09/05 Q1012 6.9mph 9°C 5°C 8.3°C
24/05/22 23:20 EGLF 242220Z AUTO 24008KT 9999 NCD 10/05 Q1012 9.2mph 10°C 5°C 9.3°C
24/05/22 22:50 EGLF 242150Z AUTO 25007KT 9999 NCD 10/05 Q1011 8.1mph 10°C 5°C 9.3°C
24/05/22 22:20 EGLF 242120Z AUTO 24007KT 9999 NCD 10/05 Q1011 8.1mph 10°C 5°C 9.3°C
24/05/22 21:50 EGLF 242050Z AUTO 22005KT 9999 NCD 10/05 Q1011 5.8mph 10°C 5°C 9.3°C
24/05/22 20:50 EGLF 241950Z AUTO 24006KT 9999 NCD 14/06 Q1010 6.9mph 14°C 6°C 13.6°C
24/05/22 20:20 EGLF 241920Z AUTO 27007KT 240V310 9999 NCD 15/06 Q1010 8.1mph 15°C 6°C 14.6°C
24/05/22 19:50 EGLF 241850Z AUTO 28008KT 240V320 9999 NCD 16/05 Q1009 9.2mph 16°C 5°C 15.3°C
24/05/22 19:20 EGLF 241820Z AUTO 29009KT 260V330 9999 NCD 16/05 Q1009 10.4mph 16°C 5°C 15.3°C
24/05/22 18:50 EGLF 241750Z 28010KT 250V310 9999 FEW048CB 17/06 Q1009 11.5mph 17°C 6°C 16.6°C
24/05/22 18:20 EGLF 241720Z 29010KT 240V330 9999 FEW048CB 17/07 Q1008 11.5mph 17°C 7°C 17.0°C
24/05/22 17:50 EGLF 241650Z 28010KT 250V320 9999 FEW048CB 18/05 Q1008 11.5mph 18°C 5°C 17.3°C
24/05/22 17:20 EGLF 241620Z 26011KT 220V310 9999 FEW045CB 17/06 Q1008 12.7mph 17°C 6°C 16.6°C
24/05/22 16:50 EGLF 241550Z 25014KT 9999 VCTS FEW045CB 18/07 Q1008 VCTS 16.1mph 18°C 7°C 18.0°C
24/05/22 15:50 EGLF 241450Z 29008KT 240V340 9999 VCSH FEW047CB 17/07 Q1007 VCSH 9.2mph 17°C 7°C 17.0°C
24/05/22 15:20 EGLF 241420Z 31012KT 280V340 9999 VCSH FEW047CB 16/07 Q1007 VCSH 13.8mph 16°C 7°C 16.0°C
24/05/22 14:50 EGLF 241350Z 28009G20KT 240V330 9999 VCSH FEW047CB 18/07 Q1007 VCSH 10.4mph 23.0mph 18°C 7°C 18.0°C
24/05/22 13:50 EGLF 241250Z AUTO 27008KT 240V320 9999 //////CB 16/08 Q1007 9.2mph 16°C 8°C 16.4°C
24/05/22 13:20 EGLF 241220Z 26010KT 9999 FEW049CB 14/08 Q1007 11.5mph 14°C 8°C 14.4°C
24/05/22 12:50 EGLF 241150Z 24009KT 9999 FEW040 12/09 Q1007 10.4mph 12°C 9°C 12.8°C
24/05/22 11:50 EGLF 241050Z 25007KT 220V290 9999 VCSH FEW035 BKN040 11/09 Q1006 RESHRA VCSH 8.1mph 11°C 9°C 11.8°C
24/05/22 11:20 EGLF 241020Z 24010KT 210V280 9999 VCSH FEW021 BKN040 14/09 Q1006 VCSH 11.5mph 14°C 9°C 14.8°C
24/05/22 10:50 EGLF 240950Z 25008KT 210V290 9999 VCSH FEW019CB BKN025 13/09 Q1006 RESHRA VCSH 9.2mph 13°C 9°C 13.8°C
24/05/22 10:20 EGLF 240920Z 25007KT 220V290 9999 FEW019CB 13/10 Q1006 8.1mph 13°C 10°C 14.3°C
24/05/22 09:20 EGLF 240820Z 29007KT 250V340 9999 SCT019 SCT035 13/09 Q1005 8.1mph 13°C 9°C 13.8°C
24/05/22 08:20 EGLF 240720Z AUTO 29007KT 240V330 9999 FEW012/// SCT048/// 11/08 Q1005 8.1mph 11°C 8°C 11.4°C
24/05/22 07:50 EGLF 240650Z 29008KT 260V320 9999 FEW011 BKN040 11/08 Q1004 9.2mph 11°C 8°C 11.4°C
24/05/22 07:20 EGLF 240620Z AUTO 27007KT 240V300 9999 BKN045/// 11/08 Q1004 8.1mph 11°C 8°C 11.4°C
24/05/22 06:50 EGLF 240550Z 27007KT 240V300 9999 FEW008 10/08 Q1003 8.1mph 10°C 8°C 10.4°C
24/05/22 06:20 EGLF 240520Z AUTO 25007KT 9999 SCT012/// SCT030/// 10/08 Q1003 8.1mph 10°C 8°C 10.4°C
24/05/22 05:50 EGLF 240450Z AUTO 25007KT 9999 FEW014/// 10/08 Q1003 8.1mph 10°C 8°C 10.4°C
24/05/22 05:20 EGLF 240420Z AUTO 25006KT 9999 SCT010/// SCT042/// 09/08 Q1003 6.9mph 9°C 8°C 9.4°C
24/05/22 04:50 EGLF 240350Z AUTO 24006KT 9999 FEW010/// SCT033/// BKN042/// 09/08 Q1002 6.9mph 9°C 8°C 9.4°C
24/05/22 04:20 EGLF 240320Z AUTO 24006KT 9999 FEW040/// 09/08 Q1002 6.9mph 9°C 8°C 9.4°C
24/05/22 03:50 EGLF 240250Z AUTO 24006KT 9999 -RA SCT031/// SCT048/// 09/08 Q1002 -RA 6.9mph 9°C 8°C 9.4°C
24/05/22 03:20 EGLF 240220Z AUTO 24005KT 9999 -RA FEW024/// 09/08 Q1002 -RA 5.8mph 9°C 8°C 9.4°C
24/05/22 02:20 EGLF 240120Z AUTO 24006KT 9999 FEW025/// 09/07 Q1002 6.9mph 9°C 7°C 9.0°C
24/05/22 01:50 EGLF 240050Z AUTO 25007KT 9999 NCD 09/08 Q1002 8.1mph 9°C 8°C 9.4°C
24/05/22 00:50 EGLF 232350Z AUTO 27006KT 240V310 9999 -RA FEW014/// 10/08 Q1002 REUP -RA 6.9mph 10°C 8°C 10.4°C
23/05/22 23:50 EGLF 232250Z AUTO 30006KT 270V330 9999 -RA SCT011/// SCT049/// 11/08 Q1002 -RA 6.9mph 11°C 8°C 11.4°C
23/05/22 23:20 EGLF 232220Z AUTO 26009KT 9999 -RA BKN016/// 11/08 Q1001 -RA 10.4mph 11°C 8°C 11.4°C
23/05/22 22:50 EGLF 232150Z AUTO 25010KT 9999 NCD 11/08 Q1001 11.5mph 11°C 8°C 11.4°C
23/05/22 22:20 EGLF 232120Z AUTO 24011KT 9999 NCD 12/08 Q1001 12.7mph 12°C 8°C 12.4°C
23/05/22 21:50 EGLF 232050Z AUTO 24011KT 9999 NCD 12/08 Q1001 12.7mph 12°C 8°C 12.4°C
23/05/22 21:20 EGLF 232020Z AUTO 24009KT 9999 NCD 12/08 Q1001 10.4mph 12°C 8°C 12.4°C
23/05/22 20:50 EGLF 231950Z AUTO 25010KT 9999 NCD 13/08 Q1001 11.5mph 13°C 8°C 13.4°C
23/05/22 20:20 EGLF 231920Z AUTO 25008KT 9999 NCD 13/08 Q1001 9.2mph 13°C 8°C 13.4°C
23/05/22 19:50 EGLF 231850Z AUTO 25010KT 9999 -RA NCD 14/08 Q1001 -RA 11.5mph 14°C 8°C 14.4°C
23/05/22 19:20 EGLF 231820Z AUTO 25010KT 9999 NCD 14/06 Q1001 11.5mph 14°C 6°C 13.6°C
23/05/22 18:50 EGLF 231750Z 25012KT 9999 -RA FEW043 14/07 Q1000 -RA 13.8mph 14°C 7°C 14.0°C
23/05/22 18:20 EGLF 231720Z 26015KT 230V310 9999 SCT043 16/06 Q1000 17.3mph 16°C 6°C 15.6°C
23/05/22 17:20 EGLF 231620Z AUTO 29007KT 230V330 9999 FEW039/// 18/09 Q1000 8.1mph 18°C 9°C 18.8°C
23/05/22 16:50 EGLF 231550Z AUTO 25009KT 220V300 9999 FEW038/// 18/08 Q1000 10.4mph 18°C 8°C 18.4°C
23/05/22 16:20 EGLF 231520Z AUTO 28008KT 250V320 9999 FEW040/// 18/09 Q1000 9.2mph 18°C 9°C 18.8°C
23/05/22 15:50 EGLF 231450Z 26009KT 240V310 9999 FEW043 18/08 Q1000 10.4mph 18°C 8°C 18.4°C
23/05/22 15:20 EGLF 231420Z AUTO 30008KT 240V350 9999 NCD 17/08 Q1001 9.2mph 17°C 8°C 17.4°C
23/05/22 14:20 EGLF 231320Z 29008KT 250V330 9999 SCT032 17/09 Q1001 9.2mph 17°C 9°C 17.8°C
23/05/22 13:50 EGLF 231250Z 28008KT 240V310 9999 SCT032 16/09 Q1001 9.2mph 16°C 9°C 16.8°C
23/05/22 13:20 EGLF 231220Z 25006KT 220V280 9999 FEW027 16/10 Q1001 6.9mph 16°C 10°C 17.3°C
23/05/22 12:50 EGLF 231150Z 27005KT 220V300 9999 FEW042 16/10 Q1002 5.8mph 16°C 10°C 17.3°C
23/05/22 12:20 EGLF 231120Z 29006KT 250V320 9999 FEW025 16/10 Q1002 6.9mph 16°C 10°C 17.3°C
23/05/22 11:50 EGLF 231050Z 28007KT 250V320 9999 FEW020 SCT036 16/09 Q1002 8.1mph 16°C 9°C 16.8°C
23/05/22 10:50 EGLF 230950Z 31006KT 260V350 9999 BKN016 16/11 Q1002 6.9mph 16°C 11°C 17.8°C
23/05/22 10:20 EGLF 230920Z AUTO 32007KT 9999 FEW014/// SCT040/// 15/11 Q1002 8.1mph 15°C 11°C 16.8°C
23/05/22 09:50 EGLF 230850Z 32006KT 280V350 9999 FEW014 15/11 Q1002 6.9mph 15°C 11°C 16.8°C
23/05/22 09:20 EGLF 230820Z AUTO 31007KT 280V350 9999 SCT014/// 14/11 Q1003 8.1mph 14°C 11°C 15.8°C
23/05/22 08:50 EGLF 230750Z AUTO 30008KT 9999 FEW032/// 14/11 Q1003 9.2mph 14°C 11°C 15.8°C
23/05/22 08:20 EGLF 230720Z AUTO 29007KT 260V320 9999 FEW031/// 14/11 Q1003 8.1mph 14°C 11°C 15.8°C
23/05/22 07:50 EGLF 230650Z AUTO 29004KT 250V330 9999 NCD 13/10 Q1003 4.6mph 13°C 10°C 14.3°C
23/05/22 07:20 EGLF 230620Z AUTO 24004KT 220V280 9999 NCD 13/10 Q1004 4.6mph 13°C 10°C 14.3°C
23/05/22 06:50 EGLF 230550Z 28004KT 240V310 9999 FEW024 12/09 Q1004 4.6mph 12°C 9°C 12.8°C
23/05/22 06:20 EGLF 230520Z AUTO 25004KT 9999 BKN047/// 12/09 Q1004 4.6mph 12°C 9°C 12.8°C
23/05/22 05:50 EGLF 230450Z AUTO 25004KT 9999 OVC045/// 12/08 Q1005 4.6mph 12°C 8°C 12.4°C
23/05/22 05:20 EGLF 230420Z AUTO 25003KT 9999 BKN038/// 10/08 Q1005 3.5mph 10°C 8°C 10.4°C
23/05/22 04:50 EGLF 230350Z AUTO VRB02KT 9999 FEW035/// OVC044/// 09/07 Q1005 2.3mph 9°C 7°C 9.0°C
23/05/22 04:20 EGLF 230320Z AUTO 22001KT 9999 BKN048/// 09/07 Q1005 1.2mph 9°C 7°C 9.0°C
23/05/22 03:50 EGLF 230250Z AUTO 22002KT 9999 BKN046/// 09/07 Q1005 2.3mph 9°C 7°C 9.0°C
23/05/22 03:20 EGLF 230220Z AUTO 16001KT 9999 NCD 09/07 Q1006 1.2mph 9°C 7°C 9.0°C
23/05/22 02:50 EGLF 230150Z AUTO 19001KT 9999 BKN046/// 09/06 Q1006 1.2mph 9°C 6°C 8.6°C
23/05/22 02:20 EGLF 230120Z AUTO VRB02KT 9999 NCD 09/07 Q1006 2.3mph 9°C 7°C 9.0°C
23/05/22 01:50 EGLF 230050Z AUTO 00000KT 9999 NCD 10/07 Q1006 10°C 7°C 10.0°C
23/05/22 01:20 EGLF 230020Z AUTO VRB02KT 9999 NCD 11/07 Q1007 2.3mph 11°C 7°C 11.0°C
23/05/22 00:50 EGLF 222350Z AUTO 21002KT 9999 NCD 11/07 Q1007 2.3mph 11°C 7°C 11.0°C
23/05/22 00:20 EGLF 222320Z AUTO 19002KT 9999 NCD 11/07 Q1008 2.3mph 11°C 7°C 11.0°C
22/05/22 23:50 EGLF 222250Z AUTO VRB02KT 9999 NCD 10/07 Q1008 2.3mph 10°C 7°C 10.0°C
22/05/22 23:20 EGLF 222220Z AUTO 21003KT 9999 NCD 10/07 Q1008 3.5mph 10°C 7°C 10.0°C
22/05/22 22:50 EGLF 222150Z AUTO 21003KT 9999 NCD 11/07 Q1008 3.5mph 11°C 7°C 11.0°C
22/05/22 22:20 EGLF 222120Z AUTO 24003KT 9999 NCD 13/07 Q1008 3.5mph 13°C 7°C 13.0°C
22/05/22 21:50 EGLF 222050Z AUTO 23004KT 9999 NCD 13/07 Q1008 4.6mph 13°C 7°C 13.0°C
22/05/22 21:20 EGLF 222020Z AUTO VRB01KT 9999 NCD 15/07 Q1009 1.2mph 15°C 7°C 15.0°C
22/05/22 20:20 EGLF 221920Z AUTO 21005KT 170V230 9999 NCD 16/07 Q1009 5.8mph 16°C 7°C 16.0°C
22/05/22 19:50 EGLF 221850Z AUTO 20008KT 9999 NCD 18/07 Q1009 9.2mph 18°C 7°C 18.0°C
22/05/22 19:20 EGLF 221820Z AUTO 19008KT 170V230 9999 NCD 19/07 Q1009 9.2mph 19°C 7°C 19.0°C
22/05/22 18:50 EGLF 221750Z AUTO 20010KT 9999 NCD 19/07 Q1009 11.5mph 19°C 7°C 19.0°C
22/05/22 18:20 EGLF 221720Z AUTO 20010KT 9999 NCD 20/07 Q1010 11.5mph 20°C 7°C 20.0°C